Time;durP1;ratioP1;P1;durP2;ratioP2;P2;SDS_P1;SDS_P2;PMS_P1;PMS_P2;Temp;Humidity;BMP_temperature;BMP_pressure;BME280_temperature;BME280_humidity;BME280_pressure;Samples;Min_cycle;Max_cycle;Signal;HPM_P1;HPM_P2
2023/07/25 02:01:08;;;;;;;12.00;6.40;;;;;;;;;;4680894;28;20054;-83
2023/07/25 02:03:35;;;;;;;11.18;6.65;;;;;;;;;;4239729;33;20050;-83
2023/07/25 02:06:03;;;;;;;12.27;6.37;;;;;;;;;;4240685;33;20046;-83
2023/07/25 02:08:36;;;;;;;12.95;6.43;;;;;;;;;;4222543;34;20050;-82
2023/07/25 02:11:02;;;;;;;10.15;6.47;;;;;;;;;;4223958;34;20461;-86
2023/07/25 02:13:29;;;;;;;10.68;6.22;;;;;;;;;;4224678;34;20051;-82
2023/07/25 02:15:55;;;;;;;13.32;7.10;;;;;;;;;;4223869;34;20436;-83
2023/07/25 02:18:21;;;;;;;11.90;6.68;;;;;;;;;;4223552;34;20468;-86
2023/07/25 02:20:47;;;;;;;13.57;7.40;;;;;;;;;;4223001;33;20449;-85
2023/07/25 02:23:15;;;;;;;14.55;6.35;;;;;;;;;;4224632;34;20034;-83
2023/07/25 02:25:42;;;;;;;11.27;6.65;;;;;;;;;;4223756;34;20061;-84
2023/07/25 02:28:09;;;;;;;9.80;6.68;;;;;;;;;;4223206;34;20489;-83
2023/07/25 02:30:35;;;;;;;14.45;6.72;;;;;;;;;;4222749;34;20039;-83
2023/07/25 02:33:02;;;;;;;19.15;7.47;;;;;;;;;;4224890;34;20066;-83
2023/07/25 02:35:27;;;;;;;8.10;6.37;;;;;;;;;;4223555;34;20104;-81
2023/07/25 02:37:54;;;;;;;16.80;6.53;;;;;;;;;;4208965;34;20062;-83
2023/07/25 02:40:20;;;;;;;9.90;6.65;;;;;;;;;;4210858;34;20133;-82
2023/07/25 02:42:46;;;;;;;13.25;6.20;;;;;;;;;;4207184;34;20054;-86
2023/07/25 02:45:14;;;;;;;9.77;6.87;;;;;;;;;;4210644;34;20929;-84
2023/07/25 02:47:41;;;;;;;17.37;6.40;;;;;;;;;;4210552;34;20417;-84
2023/07/25 02:50:07;;;;;;;10.50;5.90;;;;;;;;;;4210897;34;20115;-83
2023/07/25 02:52:34;;;;;;;13.40;6.78;;;;;;;;;;4209836;34;20807;-84
2023/07/25 02:55:00;;;;;;;12.10;7.22;;;;;;;;;;4207543;34;20084;-83
2023/07/25 02:57:26;;;;;;;16.40;6.90;;;;;;;;;;4209386;34;20630;-82
2023/07/25 02:59:52;;;;;;;11.68;6.57;;;;;;;;;;4222996;34;20047;-84
2023/07/25 03:02:19;;;;;;;11.05;6.80;;;;;;;;;;4235123;33;20042;-83
2023/07/25 03:04:45;;;;;;;13.27;7.05;;;;;;;;;;4225444;33;20103;-83
2023/07/25 03:07:11;;;;;;;11.40;7.25;;;;;;;;;;4235560;33;20047;-84
2023/07/25 03:09:37;;;;;;;10.25;6.45;;;;;;;;;;4236945;33;20494;-84
2023/07/25 03:12:04;;;;;;;12.43;6.07;;;;;;;;;;4238350;33;20064;-84
2023/07/25 03:14:30;;;;;;;11.55;6.20;;;;;;;;;;4223232;34;20038;-82
2023/07/25 03:16:56;;;;;;;13.18;7.40;;;;;;;;;;4223034;34;20572;-85
2023/07/25 03:19:22;;;;;;;9.88;6.15;;;;;;;;;;4222525;34;20051;-83
2023/07/25 03:21:49;;;;;;;8.63;6.20;;;;;;;;;;4224721;34;20076;-84
2023/07/25 03:24:16;;;;;;;11.45;6.22;;;;;;;;;;4223973;33;20038;-83
2023/07/25 03:26:42;;;;;;;10.57;6.03;;;;;;;;;;4223566;34;20054;-83
2023/07/25 03:29:08;;;;;;;8.85;5.30;;;;;;;;;;4223157;33;20108;-83
2023/07/25 03:31:34;;;;;;;9.95;5.87;;;;;;;;;;4210220;34;20068;-84
2023/07/25 03:34:00;;;;;;;11.05;5.57;;;;;;;;;;4209464;34;20516;-84
2023/07/25 03:36:26;;;;;;;13.10;5.70;;;;;;;;;;4210171;34;20043;-83
2023/07/25 03:38:53;;;;;;;9.70;5.75;;;;;;;;;;4196701;34;20039;-82
2023/07/25 03:41:19;;;;;;;9.93;5.47;;;;;;;;;;4194625;34;20057;-83
2023/07/25 03:43:45;;;;;;;9.18;4.78;;;;;;;;;;4193467;34;20039;-83
2023/07/25 03:46:11;;;;;;;7.80;4.37;;;;;;;;;;4205833;34;20377;-83
2023/07/25 03:48:37;;;;;;;10.80;4.87;;;;;;;;;;4209884;34;20070;-83
2023/07/25 03:51:04;;;;;;;7.70;4.07;;;;;;;;;;4207980;34;20058;-84
2023/07/25 03:53:30;;;;;;;4.93;4.10;;;;;;;;;;4207392;34;20072;-88
2023/07/25 03:55:56;;;;;;;5.62;4.37;;;;;;;;;;4197839;34;20511;-85
2023/07/25 03:58:22;;;;;;;7.93;3.95;;;;;;;;;;4195613;34;20035;-84
2023/07/25 04:00:49;;;;;;;6.18;4.05;;;;;;;;;;4194748;34;20055;-83
2023/07/25 04:03:15;;;;;;;6.12;4.00;;;;;;;;;;4216471;34;20054;-84
2023/07/25 04:05:42;;;;;;;16.62;4.32;;;;;;;;;;4220838;34;20085;-87
2023/07/25 04:08:08;;;;;;;11.93;4.80;;;;;;;;;;4221590;34;20099;-84
2023/07/25 04:10:34;;;;;;;7.05;3.83;;;;;;;;;;4209743;34;20050;-83
2023/07/25 04:13:00;;;;;;;8.05;4.10;;;;;;;;;;4208176;34;20099;-83
2023/07/25 04:15:26;;;;;;;5.93;4.05;;;;;;;;;;4208387;34;20066;-84
2023/07/25 04:17:53;;;;;;;8.65;4.75;;;;;;;;;;4206410;34;20047;-84
2023/07/25 04:20:19;;;;;;;8.18;5.00;;;;;;;;;;4208765;34;20058;-83
2023/07/25 04:22:45;;;;;;;7.55;5.10;;;;;;;;;;4208971;34;20031;-83
2023/07/25 04:25:11;;;;;;;5.35;3.78;;;;;;;;;;4208722;34;20060;-81
2023/07/25 04:27:37;;;;;;;10.95;4.53;;;;;;;;;;4207298;34;20198;-89
2023/07/25 04:30:04;;;;;;;9.57;3.33;;;;;;;;;;4194550;34;20097;-83
2023/07/25 04:32:30;;;;;;;5.05;3.75;;;;;;;;;;4194776;34;20038;-83
2023/07/25 04:34:57;;;;;;;8.90;3.85;;;;;;;;;;4180341;34;20109;-83
2023/07/25 04:37:22;;;;;;;14.75;3.60;;;;;;;;;;4180084;34;20059;-83
2023/07/25 04:39:49;;;;;;;5.80;3.85;;;;;;;;;;4178757;34;20052;-89
2023/07/25 04:42:15;;;;;;;6.15;3.60;;;;;;;;;;4210953;34;20053;-82
2023/07/25 04:44:41;;;;;;;11.00;3.25;;;;;;;;;;4221627;34;20061;-81
2023/07/25 04:47:08;;;;;;;6.82;3.35;;;;;;;;;;4180117;34;20083;-82
2023/07/25 04:49:35;;;;;;;3.20;2.87;;;;;;;;;;4180842;34;20141;-82
2023/07/25 04:52:01;;;;;;;5.00;3.22;;;;;;;;;;4178503;34;20439;-83
2023/07/25 04:54:27;;;;;;;4.10;3.00;;;;;;;;;;4179947;34;20068;-84
2023/07/25 04:56:53;;;;;;;6.22;2.80;;;;;;;;;;4181471;34;20187;-82
2023/07/25 04:59:19;;;;;;;4.80;3.17;;;;;;;;;;4180318;34;20055;-83
2023/07/25 05:01:46;;;;;;;4.20;2.75;;;;;;;;;;4170338;34;20040;-83
2023/07/25 05:04:12;;;;;;;7.32;3.17;;;;;;;;;;4165960;34;20053;-83
2023/07/25 05:06:38;;;;;;;18.62;3.00;;;;;;;;;;4177260;34;20079;-82
2023/07/25 05:09:04;;;;;;;3.08;2.78;;;;;;;;;;4152891;34;20056;-82
2023/07/25 05:11:31;;;;;;;3.47;2.53;;;;;;;;;;4153162;34;20111;-82
2023/07/25 05:13:57;;;;;;;2.85;2.55;;;;;;;;;;4152509;34;20151;-82
2023/07/25 05:16:23;;;;;;;9.55;2.47;;;;;;;;;;4137083;34;20193;-82
2023/07/25 05:18:50;;;;;;;4.68;2.70;;;;;;;;;;4160475;34;20048;-83
2023/07/25 05:21:16;;;;;;;3.12;2.45;;;;;;;;;;4168604;34;20488;-83
2023/07/25 05:23:42;;;;;;;15.52;2.58;;;;;;;;;;4166076;34;20446;-84
2023/07/25 05:26:08;;;;;;;3.20;2.17;;;;;;;;;;4166839;34;20147;-83
2023/07/25 05:28:34;;;;;;;6.30;2.40;;;;;;;;;;4165621;34;20433;-83
2023/07/25 05:31:00;;;;;;;2.60;2.28;;;;;;;;;;4166901;34;20505;-83
2023/07/25 05:33:27;;;;;;;6.07;2.42;;;;;;;;;;4139925;34;20067;-83
2023/07/25 05:36:00;;;;;;;8.70;2.62;;;;;;;;;;4140151;34;20836;-82
2023/07/25 05:38:26;;;;;;;2.47;2.05;;;;;;;;;;4138023;34;20064;-87
2023/07/25 05:40:53;;;;;;;6.82;2.20;;;;;;;;;;4128032;34;20064;-82
2023/07/25 05:43:19;;;;;;;5.32;2.10;;;;;;;;;;4126907;34;20184;-82
2023/07/25 05:45:45;;;;;;;12.05;2.65;;;;;;;;;;4139998;34;20041;-82
2023/07/25 05:48:11;;;;;;;7.78;2.20;;;;;;;;;;4149492;34;20591;-85
2023/07/25 05:50:37;;;;;;;3.40;1.52;;;;;;;;;;4152325;34;20215;-82
2023/07/25 05:53:04;;;;;;;5.12;1.75;;;;;;;;;;4137092;34;20045;-83
2023/07/25 05:55:30;;;;;;;2.00;1.90;;;;;;;;;;4140809;34;20187;-84
2023/07/25 05:57:56;;;;;;;1.75;1.65;;;;;;;;;;4142197;34;20074;-83
2023/07/25 06:00:22;;;;;;;4.80;1.98;;;;;;;;;;4142556;34;20070;-83
2023/07/25 06:02:49;;;;;;;4.00;2.53;;;;;;;;;;4154949;34;20438;-82
2023/07/25 06:05:15;;;;;;;1.83;1.70;;;;;;;;;;4171991;34;20525;-82
2023/07/25 06:07:41;;;;;;;4.47;3.47;;;;;;;;;;4182510;34;20108;-83
2023/07/25 06:10:07;;;;;;;3.65;2.17;;;;;;;;;;4170515;34;20051;-83
2023/07/25 06:12:33;;;;;;;2.90;2.30;;;;;;;;;;4169227;34;20934;-82
2023/07/25 06:15:00;;;;;;;6.20;1.95;;;;;;;;;;4168995;34;20475;-82
2023/07/25 06:17:26;;;;;;;14.93;2.62;;;;;;;;;;4157813;34;20109;-84
2023/07/25 06:19:52;;;;;;;2.55;2.35;;;;;;;;;;4169520;34;20538;-83
2023/07/25 06:22:18;;;;;;;5.62;1.87;;;;;;;;;;4175572;34;20060;-84
2023/07/25 06:24:46;;;;;;;2.83;1.60;;;;;;;;;;4198539;34;20062;-85
2023/07/25 06:27:12;;;;;;;3.55;1.55;;;;;;;;;;4214173;34;20060;-85
2023/07/25 06:29:38;;;;;;;6.87;1.92;;;;;;;;;;4214031;34;20094;-83
2023/07/25 06:32:04;;;;;;;2.62;1.73;;;;;;;;;;4216344;34;20275;-82
2023/07/25 06:34:31;;;;;;;4.70;2.03;;;;;;;;;;4225877;33;20075;-82
2023/07/25 06:36:57;;;;;;;5.30;2.10;;;;;;;;;;4237894;33;20083;-82
2023/07/25 06:39:24;;;;;;;1.70;1.52;;;;;;;;;;4241749;33;20055;-81
2023/07/25 06:41:50;;;;;;;7.12;2.37;;;;;;;;;;4241446;33;20169;-82
2023/07/25 06:44:19;;;;;;;2.10;1.90;;;;;;;;;;4241908;33;20697;-80
2023/07/25 06:46:47;;;;;;;3.35;2.15;;;;;;;;;;4251918;33;20030;-83
2023/07/25 06:49:13;;;;;;;2.12;1.58;;;;;;;;;;4240746;33;20050;-83
2023/07/25 06:51:39;;;;;;;4.53;1.62;;;;;;;;;;4252615;33;20038;-84
2023/07/25 06:54:06;;;;;;;2.15;1.33;;;;;;;;;;4223021;34;20065;-82
2023/07/25 06:56:32;;;;;;;2.42;1.75;;;;;;;;;;4223736;34;20115;-82
2023/07/25 06:58:58;;;;;;;13.10;1.70;;;;;;;;;;4224757;34;20094;-83
2023/07/25 07:01:27;;;;;;;4.25;1.65;;;;;;;;;;4223341;34;20051;-83
2023/07/25 07:03:54;;;;;;;3.50;1.80;;;;;;;;;;4223597;34;20066;-84
2023/07/25 07:06:21;;;;;;;1.40;1.30;;;;;;;;;;4222005;33;20061;-82
2023/07/25 07:08:47;;;;;;;3.33;1.87;;;;;;;;;;4209159;34;20084;-83
2023/07/25 07:11:13;;;;;;;1.70;1.60;;;;;;;;;;4209617;34;20057;-82
2023/07/25 07:13:40;;;;;;;4.82;1.95;;;;;;;;;;4209774;34;20227;-84
2023/07/25 07:16:06;;;;;;;9.75;1.33;;;;;;;;;;4208474;34;20038;-87
2023/07/25 07:18:33;;;;;;;2.97;1.50;;;;;;;;;;4210937;34;20418;-84
2023/07/25 07:20:59;;;;;;;1.50;1.42;;;;;;;;;;4211136;34;20048;-82
2023/07/25 07:23:25;;;;;;;1.50;1.35;;;;;;;;;;4210739;34;20047;-83
2023/07/25 07:25:51;;;;;;;3.30;1.58;;;;;;;;;;4209294;34;20079;-83
2023/07/25 07:28:18;;;;;;;5.62;1.70;;;;;;;;;;4193359;34;20058;-87
2023/07/25 07:30:49;;;;;;;4.32;1.87;;;;;;;;;;4196439;34;20483;-83
2023/07/25 07:33:16;;;;;;;1.75;1.42;;;;;;;;;;4195371;34;20494;-84
2023/07/25 07:35:42;;;;;;;3.90;1.58;;;;;;;;;;4194701;34;20953;-84
2023/07/25 07:38:08;;;;;;;6.03;1.83;;;;;;;;;;4194287;34;20475;-84
2023/07/25 07:40:37;;;;;;;1.73;1.45;;;;;;;;;;4206045;34;20051;-86
2023/07/25 07:43:04;;;;;;;2.47;1.77;;;;;;;;;;4209016;34;20079;-84
2023/07/25 07:45:30;;;;;;;1.80;1.70;;;;;;;;;;4209232;34;20076;-84
2023/07/25 07:47:57;;;;;;;3.60;1.30;;;;;;;;;;4208513;34;20167;-84
2023/07/25 07:50:22;;;;;;;6.78;1.42;;;;;;;;;;4209964;34;20448;-83
2023/07/25 07:52:49;;;;;;;1.80;1.30;;;;;;;;;;4208363;34;20043;-86
2023/07/25 07:55:15;;;;;;;5.50;1.52;;;;;;;;;;4181616;34;20070;-85
2023/07/25 07:57:43;;;;;;;4.93;1.98;;;;;;;;;;4181375;34;20418;-84
2023/07/25 08:00:10;;;;;;;2.62;1.85;;;;;;;;;;4204329;34;20497;-84
2023/07/25 08:02:37;;;;;;;7.37;1.87;;;;;;;;;;4208041;34;20072;-83
2023/07/25 08:05:04;;;;;;;3.65;1.65;;;;;;;;;;4178920;34;20065;-85
2023/07/25 08:07:30;;;;;;;3.40;1.87;;;;;;;;;;4180677;34;20069;-83
2023/07/25 08:09:56;;;;;;;1.83;1.73;;;;;;;;;;4182088;34;20189;-83
2023/07/25 08:12:23;;;;;;;2.70;1.92;;;;;;;;;;4181188;34;20462;-83
2023/07/25 08:14:49;;;;;;;1.35;1.25;;;;;;;;;;4182255;34;20043;-82
2023/07/25 08:17:15;;;;;;;2.55;1.70;;;;;;;;;;4165854;34;20078;-90
2023/07/25 08:19:41;;;;;;;1.90;1.80;;;;;;;;;;4167686;34;20059;-84
2023/07/25 08:22:10;;;;;;;2.80;2.28;;;;;;;;;;4167920;34;20074;-84
2023/07/25 08:24:36;;;;;;;2.92;1.60;;;;;;;;;;4140128;34;20044;-83
2023/07/25 08:27:03;;;;;;;1.12;1.12;;;;;;;;;;4140512;34;20082;-83
2023/07/25 08:29:30;;;;;;;2.17;1.58;;;;;;;;;;4141654;34;20063;-85
2023/07/25 08:31:56;;;;;;;2.00;1.90;;;;;;;;;;4139364;34;20233;-84
2023/07/25 08:34:22;;;;;;;1.70;1.60;;;;;;;;;;4140639;34;20221;-85
2023/07/25 08:36:49;;;;;;;1.15;1.12;;;;;;;;;;4150603;34;20048;-82
2023/07/25 08:39:15;;;;;;;1.33;1.33;;;;;;;;;;4153037;34;20787;-83
2023/07/25 08:41:46;;;;;;;2.20;1.35;;;;;;;;;;4154084;34;20044;-85
2023/07/25 08:44:14;;;;;;;2.33;1.58;;;;;;;;;;4152807;34;20353;-84
2023/07/25 08:46:41;;;;;;;4.65;1.45;;;;;;;;;;4154772;34;20056;-82
2023/07/25 08:49:10;;;;;;;0.95;0.95;;;;;;;;;;4155296;34;20429;-83
2023/07/25 08:51:37;;;;;;;4.78;1.50;;;;;;;;;;4162209;34;20048;-87
2023/07/25 08:54:02;;;;;;;1.60;1.50;;;;;;;;;;4188274;34;20470;-83
2023/07/25 08:56:29;;;;;;;31.33;21.33;;;;;;;;;;4230865;33;20085;-85
2023/07/25 08:58:56;;;;;;;4.22;2.12;;;;;;;;;;4237592;34;20106;-84
2023/07/25 09:01:23;;;;;;;3.50;1.98;;;;;;;;;;4233273;34;20142;-83
2023/07/25 09:03:49;;;;;;;3.83;2.00;;;;;;;;;;4208254;34;20177;-90
2023/07/25 09:06:15;;;;;;;4.47;1.70;;;;;;;;;;4208593;34;20083;-87
2023/07/25 09:08:41;;;;;;;1.80;1.70;;;;;;;;;;4208160;34;20111;-86
2023/07/25 09:11:09;;;;;;;1.60;1.50;;;;;;;;;;4175826;34;20044;-82
2023/07/25 09:13:35;;;;;;;4.87;2.05;;;;;;;;;;4167841;34;20058;-84
2023/07/25 09:16:02;;;;;;;2.78;1.85;;;;;;;;;;4166759;34;20051;-83
2023/07/25 09:18:28;;;;;;;6.60;2.05;;;;;;;;;;4165951;34;20111;-84
2023/07/25 09:20:55;;;;;;;1.20;1.20;;;;;;;;;;4165156;34;20044;-83
2023/07/25 09:23:21;;;;;;;3.75;1.50;;;;;;;;;;4187962;34;20066;-83
2023/07/25 09:25:48;;;;;;;1.55;1.55;;;;;;;;;;4194059;34;20047;-84
2023/07/25 09:28:14;;;;;;;1.95;1.37;;;;;;;;;;4192007;34;20073;-87
2023/07/25 09:30:49;;;;;;;1.85;1.75;;;;;;;;;;4184759;34;20196;-83
2023/07/25 09:33:26;;;;;;;2.72;1.62;;;;;;;;;;4196487;34;20643;-83
2023/07/25 09:35:53;;;;;;;6.35;2.10;;;;;;;;;;4220568;34;20060;-88
2023/07/25 09:38:19;;;;;;;1.85;1.75;;;;;;;;;;4224146;34;20046;-83
2023/07/25 09:40:46;;;;;;;1.52;1.42;;;;;;;;;;4210089;34;20065;-82
2023/07/25 09:43:20;;;;;;;2.33;1.90;;;;;;;;;;4224225;34;20491;-83
2023/07/25 09:45:46;;;;;;;3.12;1.40;;;;;;;;;;4224084;34;20047;-83
2023/07/25 09:48:14;;;;;;;1.60;1.50;;;;;;;;;;4191275;34;20415;-85
2023/07/25 09:50:45;;;;;;;2.90;1.62;;;;;;;;;;4192523;34;20509;-84
2023/07/25 09:53:11;;;;;;;1.55;1.33;;;;;;;;;;4187097;34;20447;-85
2023/07/25 09:55:38;;;;;;;1.33;1.23;;;;;;;;;;4171406;34;20085;-86
2023/07/25 09:58:04;;;;;;;5.72;1.58;;;;;;;;;;4181444;34;20066;-86
2023/07/25 10:00:31;;;;;;;2.78;1.55;;;;;;;;;;4183304;34;20420;-83
2023/07/25 10:02:58;;;;;;;6.25;2.00;;;;;;;;;;4182572;34;20225;-84
2023/07/25 10:05:25;;;;;;;3.37;1.87;;;;;;;;;;4181445;34;20069;-84
2023/07/25 10:07:52;;;;;;;4.05;1.85;;;;;;;;;;4182814;34;20183;-85
2023/07/25 10:10:19;;;;;;;1.58;1.37;;;;;;;;;;4182267;34;20117;-86
2023/07/25 10:12:45;;;;;;;1.58;1.40;;;;;;;;;;4182170;34;20040;-82
2023/07/25 10:15:12;;;;;;;2.90;1.87;;;;;;;;;;4182828;34;20576;-83
2023/07/25 10:17:38;;;;;;;2.58;1.90;;;;;;;;;;4181970;34;20095;-82
2023/07/25 10:20:07;;;;;;;2.83;1.67;;;;;;;;;;4194018;34;20059;-83
2023/07/25 10:22:37;;;;;;;1.83;1.65;;;;;;;;;;4195798;34;20073;-87
2023/07/25 10:25:10;;;;;;;5.20;1.87;;;;;;;;;;4196865;34;20065;-84
2023/07/25 10:27:36;;;;;;;2.35;1.60;;;;;;;;;;4195973;34;20061;-84
2023/07/25 10:30:19;;;;;;;2.83;1.35;;;;;;;;;;4182219;34;20070;-85
2023/07/25 10:32:46;;;;;;;1.60;1.58;;;;;;;;;;4185518;34;20070;-82
2023/07/25 10:35:12;;;;;;;1.80;1.52;;;;;;;;;;4200936;34;20549;-80
2023/07/25 10:37:44;;;;;;;2.10;1.33;;;;;;;;;;4195053;34;20108;-79
2023/07/25 10:40:15;;;;;;;1.98;1.65;;;;;;;;;;4196163;34;20050;-80
2023/07/25 10:42:43;;;;;;;1.48;1.48;;;;;;;;;;4193092;34;20035;-81
2023/07/25 10:45:22;;;;;;;7.40;1.77;;;;;;;;;;4196612;34;20043;-81
2023/07/25 10:47:49;;;;;;;1.90;1.75;;;;;;;;;;4195158;34;20100;-79
2023/07/25 10:50:16;;;;;;;1.90;1.77;;;;;;;;;;4193360;34;20405;-83
2023/07/25 10:52:43;;;;;;;1.83;1.50;;;;;;;;;;4167038;34;20311;-79
2023/07/25 10:55:11;;;;;;;1.40;1.40;;;;;;;;;;4168287;34;20400;-79
2023/07/25 10:57:37;;;;;;;2.50;1.65;;;;;;;;;;4168077;34;20047;-79
2023/07/25 11:03:30;;;;;;;1.75;1.50;;;;;;;;;;4037275;32;20066;-79
2023/07/25 11:06:06;;;;;;;5.28;1.75;;;;;;;;;;4195925;34;20071;-80
2023/07/25 11:08:36;;;;;;;1.30;1.30;;;;;;;;;;4208872;34;20051;-81
2023/07/25 11:11:03;;;;;;;2.75;1.67;;;;;;;;;;4209124;34;20055;-81
2023/07/25 11:13:30;;;;;;;2.22;1.62;;;;;;;;;;4208539;34;20047;-79
2023/07/25 11:15:57;;;;;;;2.60;1.77;;;;;;;;;;4208077;34;20047;-84
2023/07/25 11:18:23;;;;;;;2.15;1.95;;;;;;;;;;4189503;34;20065;-86
2023/07/25 11:21:02;;;;;;;5.37;2.47;;;;;;;;;;4194610;34;20084;-81
2023/07/25 11:23:29;;;;;;;7.62;2.28;;;;;;;;;;4198995;34;20039;-80
2023/07/25 11:25:57;;;;;;;2.10;1.73;;;;;;;;;;4196759;34;20434;-81
2023/07/25 11:28:23;;;;;;;3.33;1.75;;;;;;;;;;4208149;34;20113;-80
2023/07/25 11:30:53;;;;;;;1.95;1.85;;;;;;;;;;4207844;34;20065;-79
2023/07/25 11:33:20;;;;;;;5.07;1.90;;;;;;;;;;4221639;34;20056;-85
2023/07/25 11:35:53;;;;;;;1.92;1.70;;;;;;;;;;4180807;34;20059;-79
2023/07/25 11:38:25;;;;;;;2.22;2.03;;;;;;;;;;4179934;34;20122;-82
2023/07/25 11:40:54;;;;;;;2.00;1.90;;;;;;;;;;4180211;34;20055;-80
2023/07/25 11:43:21;;;;;;;1.62;1.52;;;;;;;;;;4180355;34;20040;-79
2023/07/25 11:45:48;;;;;;;4.18;1.52;;;;;;;;;;4179678;34;20045;-83
2023/07/25 11:48:21;;;;;;;1.90;1.80;;;;;;;;;;4180050;34;20385;-79
2023/07/25 11:50:48;;;;;;;1.85;1.80;;;;;;;;;;4195879;34;20224;-80
2023/07/25 11:53:19;;;;;;;2.87;1.62;;;;;;;;;;4193239;34;20110;-79
2023/07/25 11:55:46;;;;;;;1.80;1.65;;;;;;;;;;4193929;34;20048;-80
2023/07/25 11:58:16;;;;;;;1.50;1.40;;;;;;;;;;4221897;34;20146;-78
2023/07/25 12:00:43;;;;;;;6.50;1.48;;;;;;;;;;4227155;34;20193;-85
2023/07/25 12:03:17;;;;;;;1.40;1.40;;;;;;;;;;4227473;34;20077;-81
2023/07/25 12:05:50;;;;;;;1.73;1.58;;;;;;;;;;4215909;33;20047;-81
2023/07/25 12:08:28;;;;;;;5.35;1.48;;;;;;;;;;4231936;33;20064;-80
2023/07/25 12:10:55;;;;;;;1.80;1.70;;;;;;;;;;4208108;34;20229;-87
2023/07/25 12:13:22;;;;;;;1.52;1.45;;;;;;;;;;4222403;34;20028;-80
2023/07/25 12:15:51;;;;;;;1.90;1.77;;;;;;;;;;4211518;34;20353;-80
2023/07/25 12:18:30;;;;;;;1.55;1.45;;;;;;;;;;4222931;34;20050;-80
2023/07/25 12:21:02;;;;;;;3.78;1.60;;;;;;;;;;4222530;34;20042;-80
2023/07/25 12:23:31;;;;;;;4.53;1.42;;;;;;;;;;4211247;34;20043;-80
2023/07/25 12:26:13;;;;;;;3.67;1.45;;;;;;;;;;4221409;34;20051;-83
2023/07/25 12:28:52;;;;;;;1.45;1.45;;;;;;;;;;4217215;34;20046;-81
2023/07/25 12:31:27;;;;;;;1.65;1.37;;;;;;;;;;4207707;34;20076;-81
2023/07/25 12:34:12;;;;;;;3.55;1.35;;;;;;;;;;4207882;34;20039;-80
2023/07/25 12:36:50;;;;;;;1.50;1.40;;;;;;;;;;4207638;34;20414;-80
2023/07/25 12:39:23;;;;;;;5.90;1.33;;;;;;;;;;4207291;34;20050;-80
2023/07/25 12:42:01;;;;;;;8.45;1.60;;;;;;;;;;4220095;33;20072;-82
2023/07/25 12:44:30;;;;;;;5.18;1.50;;;;;;;;;;4229880;33;20038;-81
2023/07/25 12:47:05;;;;;;;2.05;1.50;;;;;;;;;;4223323;34;20047;-79
2023/07/25 12:49:33;;;;;;;1.60;1.27;;;;;;;;;;4206671;34;20047;-79
2023/07/25 12:52:00;;;;;;;8.90;1.62;;;;;;;;;;4205775;34;21324;-79
2023/07/25 12:54:26;;;;;;;3.90;1.67;;;;;;;;;;4205146;34;20044;-82
2023/07/25 12:56:52;;;;;;;2.62;1.35;;;;;;;;;;4204237;34;20043;-79
2023/07/25 12:59:19;;;;;;;1.65;1.65;;;;;;;;;;4207580;34;20078;-76
2023/07/25 13:01:47;;;;;;;7.82;1.48;;;;;;;;;;4194116;34;20051;-74
2023/07/25 13:04:13;;;;;;;2.92;1.42;;;;;;;;;;4195052;34;20493;-79
2023/07/25 13:06:40;;;;;;;4.57;1.60;;;;;;;;;;4208288;34;20441;-84
2023/07/25 13:09:06;;;;;;;2.25;1.70;;;;;;;;;;4208029;34;20107;-78
2023/07/25 13:11:32;;;;;;;7.50;1.30;;;;;;;;;;4207137;34;20532;-77
2023/07/25 13:14:01;;;;;;;9.68;1.30;;;;;;;;;;4208056;34;20077;-79
2023/07/25 13:16:27;;;;;;;3.60;1.67;;;;;;;;;;4208292;34;20222;-80
2023/07/25 13:18:53;;;;;;;9.35;1.50;;;;;;;;;;4209505;34;20108;-80
2023/07/25 13:21:20;;;;;;;2.62;1.60;;;;;;;;;;4207931;34;20456;-80
2023/07/25 13:23:46;;;;;;;2.45;1.65;;;;;;;;;;4207835;34;20183;-80
2023/07/25 13:26:13;;;;;;;2.00;1.90;;;;;;;;;;4194542;34;20077;-80
2023/07/25 13:28:39;;;;;;;4.00;2.12;;;;;;;;;;4195620;34;20059;-83
2023/07/25 13:31:05;;;;;;;8.38;2.05;;;;;;;;;;4192899;34;20203;-84
2023/07/25 13:33:34;;;;;;;2.12;1.67;;;;;;;;;;4192545;34;20070;-81
2023/07/25 13:36:01;;;;;;;1.62;1.52;;;;;;;;;;4164661;34;20599;-79
2023/07/25 13:38:27;;;;;;;3.00;1.73;;;;;;;;;;4159269;34;20054;-79
2023/07/25 13:40:53;;;;;;;4.50;1.52;;;;;;;;;;4159570;34;20048;-82
2023/07/25 13:43:19;;;;;;;3.50;1.67;;;;;;;;;;4166163;34;20396;-80
2023/07/25 13:45:46;;;;;;;3.35;1.37;;;;;;;;;;4200231;34;20044;-78
2023/07/25 13:48:12;;;;;;;3.83;2.25;;;;;;;;;;4183228;34;20069;-83
2023/07/25 13:50:39;;;;;;;9.95;3.45;;;;;;;;;;4185563;34;20077;-77
2023/07/25 13:53:05;;;;;;;3.92;1.70;;;;;;;;;;4173064;34;20033;-78
2023/07/25 13:55:32;;;;;;;4.40;1.67;;;;;;;;;;4173418;34;20052;-76
2023/07/25 13:57:58;;;;;;;4.45;1.90;;;;;;;;;;4173862;34;20090;-76
2023/07/25 14:00:24;;;;;;;1.30;1.20;;;;;;;;;;4172344;34;20893;-76
2023/07/25 14:02:51;;;;;;;1.30;1.30;;;;;;;;;;4168539;34;20628;-77
2023/07/25 14:05:18;;;;;;;2.45;1.42;;;;;;;;;;4168627;34;20047;-76
2023/07/25 14:07:44;;;;;;;1.33;1.33;;;;;;;;;;4178310;34;20040;-82
2023/07/25 14:10:17;;;;;;;7.05;1.40;;;;;;;;;;4181850;34;21025;-76
2023/07/25 14:12:45;;;;;;;8.90;1.73;;;;;;;;;;4205865;34;20066;-75
2023/07/25 14:15:11;;;;;;;5.87;1.83;;;;;;;;;;4207108;34;20062;-76
2023/07/25 14:17:38;;;;;;;2.97;1.67;;;;;;;;;;4206953;34;20575;-76
2023/07/25 14:20:05;;;;;;;1.65;1.58;;;;;;;;;;4195429;34;20049;-76
2023/07/25 14:22:32;;;;;;;1.98;1.83;;;;;;;;;;4193589;34;20051;-79
2023/07/25 14:24:58;;;;;;;9.00;1.83;;;;;;;;;;4215657;34;20425;-82
2023/07/25 14:27:25;;;;;;;3.15;1.67;;;;;;;;;;4217592;34;20081;-80
2023/07/25 14:29:51;;;;;;;2.12;1.73;;;;;;;;;;4220245;34;20072;-76
2023/07/25 14:32:17;;;;;;;1.80;1.62;;;;;;;;;;4219961;33;20574;-76
2023/07/25 14:34:43;;;;;;;3.65;1.87;;;;;;;;;;4222638;33;20114;-77
2023/07/25 14:37:10;;;;;;;7.45;1.35;;;;;;;;;;4222834;33;20469;-76
2023/07/25 14:39:36;;;;;;;1.77;1.65;;;;;;;;;;4220779;33;20526;-76
2023/07/25 14:42:02;;;;;;;5.45;1.50;;;;;;;;;;4219574;34;20509;-77
2023/07/25 14:44:29;;;;;;;3.85;1.98;;;;;;;;;;4217935;34;20101;-79
2023/07/25 14:46:55;;;;;;;2.25;2.05;;;;;;;;;;4211133;34;20070;-79
2023/07/25 14:49:21;;;;;;;2.25;2.00;;;;;;;;;;4218068;34;20043;-76
2023/07/25 14:51:48;;;;;;;4.70;2.15;;;;;;;;;;4221186;34;20842;-78
2023/07/25 14:54:15;;;;;;;3.08;1.85;;;;;;;;;;4219745;34;20118;-77
2023/07/25 14:56:41;;;;;;;3.35;2.08;;;;;;;;;;4220945;34;20060;-76
2023/07/25 14:59:08;;;;;;;3.65;2.33;;;;;;;;;;4220921;34;20503;-76
2023/07/25 15:01:34;;;;;;;2.10;2.00;;;;;;;;;;4206431;34;20067;-78
2023/07/25 15:04:07;;;;;;;2.25;1.62;;;;;;;;;;4200297;34;20081;-76
2023/07/25 15:06:34;;;;;;;6.28;2.80;;;;;;;;;;4166504;34;20399;-81
2023/07/25 15:09:00;;;;;;;12.05;2.40;;;;;;;;;;4162935;34;20383;-77
2023/07/25 15:11:28;;;;;;;12.27;1.90;;;;;;;;;;4155624;34;20060;-76
2023/07/25 15:13:54;;;;;;;6.45;1.87;;;;;;;;;;4154427;34;20048;-79
2023/07/25 15:16:20;;;;;;;4.25;1.70;;;;;;;;;;4153057;34;20119;-78
2023/07/25 15:18:46;;;;;;;2.15;1.90;;;;;;;;;;4126891;34;20053;-77
2023/07/25 15:21:14;;;;;;;2.22;2.10;;;;;;;;;;4138590;34;20078;-76
2023/07/25 15:23:40;;;;;;;5.18;2.05;;;;;;;;;;4137550;34;20050;-79
2023/07/25 15:26:06;;;;;;;3.33;1.87;;;;;;;;;;4137532;34;20076;-78
2023/07/25 15:28:33;;;;;;;3.45;1.50;;;;;;;;;;4115547;34;20163;-78
2023/07/25 15:30:59;;;;;;;3.17;2.33;;;;;;;;;;4112104;34;20061;-78
2023/07/25 15:33:25;;;;;;;4.20;1.50;;;;;;;;;;4123900;34;20432;-78
2023/07/25 15:35:51;;;;;;;4.40;1.77;;;;;;;;;;4145486;34;20048;-77
2023/07/25 15:38:17;;;;;;;5.90;1.83;;;;;;;;;;4141313;34;20071;-78
2023/07/25 15:40:44;;;;;;;10.20;1.83;;;;;;;;;;4139008;34;20078;-79
2023/07/25 15:43:10;;;;;;;2.78;1.80;;;;;;;;;;4141122;34;20798;-79
2023/07/25 15:45:39;;;;;;;1.83;1.67;;;;;;;;;;4163925;34;20077;-77
2023/07/25 15:48:06;;;;;;;1.87;1.50;;;;;;;;;;4179492;34;20077;-77
2023/07/25 15:50:34;;;;;;;3.92;2.25;;;;;;;;;;4200057;34;20059;-77
2023/07/25 15:53:00;;;;;;;4.72;1.98;;;;;;;;;;4204158;34;20043;-77
2023/07/25 15:55:26;;;;;;;2.20;1.75;;;;;;;;;;4205788;34;20525;-77
2023/07/25 15:57:53;;;;;;;8.93;2.45;;;;;;;;;;4203262;34;20035;-78
2023/07/25 16:00:26;;;;;;;2.33;1.58;;;;;;;;;;4201431;34;20510;-78
2023/07/25 16:02:52;;;;;;;4.30;1.48;;;;;;;;;;4200893;34;20210;-79
2023/07/25 16:05:19;;;;;;;7.12;2.50;;;;;;;;;;4201656;34;20047;-78
2023/07/25 16:07:45;;;;;;;8.43;2.75;;;;;;;;;;4203563;34;20027;-77
2023/07/25 16:10:12;;;;;;;2.17;1.87;;;;;;;;;;4175721;34;20481;-78
2023/07/25 16:12:38;;;;;;;7.35;2.00;;;;;;;;;;4175039;34;20090;-78
2023/07/25 16:15:04;;;;;;;7.57;1.83;;;;;;;;;;4176542;34;20040;-77
2023/07/25 16:17:31;;;;;;;8.35;2.33;;;;;;;;;;4162481;34;20445;-80
2023/07/25 16:19:58;;;;;;;8.45;1.73;;;;;;;;;;4171031;34;20110;-77
2023/07/25 16:22:24;;;;;;;6.32;2.20;;;;;;;;;;4127254;34;20053;-77
2023/07/25 16:24:52;;;;;;;4.40;2.10;;;;;;;;;;4112872;34;20045;-77
2023/07/25 16:27:18;;;;;;;2.17;1.60;;;;;;;;;;4115609;34;20125;-77
2023/07/25 16:29:44;;;;;;;2.53;1.83;;;;;;;;;;4119451;34;21603;-78
2023/07/25 16:32:11;;;;;;;2.00;1.90;;;;;;;;;;4123177;34;20514;-79
2023/07/25 16:34:37;;;;;;;11.20;1.70;;;;;;;;;;4109589;34;20057;-77
2023/07/25 16:37:04;;;;;;;1.35;1.23;;;;;;;;;;4114173;34;20071;-77
2023/07/25 16:39:30;;;;;;;12.13;3.50;;;;;;;;;;4120254;34;20053;-77
2023/07/25 16:41:57;;;;;;;2.15;1.87;;;;;;;;;;4144883;34;20040;-82
2023/07/25 16:44:23;;;;;;;8.07;1.55;;;;;;;;;;4154798;34;20079;-77